sensor_id;sensor_type;location;lat;lon;timestamp;pressure;altitude;pressure_sealevel;temperature;humidity
24996;BME280;13016;52.162;21.034;2024-02-26T00:03:28;99565.42;;;14.20;50.56
24996;BME280;13016;52.162;21.034;2024-02-26T00:09:29;99567.96;;;13.98;50.65
24996;BME280;13016;52.162;21.034;2024-02-26T00:15:29;99573.15;;;13.52;51.75
24996;BME280;13016;52.162;21.034;2024-02-26T00:21:29;99564.40;;;13.45;52.48
24996;BME280;13016;52.162;21.034;2024-02-26T00:27:29;99567.84;;;13.44;52.30
24996;BME280;13016;52.162;21.034;2024-02-26T00:33:29;99570.17;;;13.30;52.66
24996;BME280;13016;52.162;21.034;2024-02-26T00:39:29;99560.39;;;13.38;52.85
24996;BME280;13016;52.162;21.034;2024-02-26T00:45:29;99553.03;;;13.46;52.65
24996;BME280;13016;52.162;21.034;2024-02-26T00:57:49;99548.43;;;13.11;53.13
24996;BME280;13016;52.162;21.034;2024-02-26T01:03:49;99545.29;;;13.12;53.10
24996;BME280;13016;52.162;21.034;2024-02-26T01:09:49;99551.16;;;12.97;53.14
24996;BME280;13016;52.162;21.034;2024-02-26T01:15:49;99551.40;;;12.92;53.31
24996;BME280;13016;52.162;21.034;2024-02-26T01:21:50;99546.94;;;12.88;53.19
24996;BME280;13016;52.162;21.034;2024-02-26T01:27:50;99544.27;;;12.75;53.00
24996;BME280;13016;52.162;21.034;2024-02-26T01:33:50;99550.44;;;12.69;53.12
24996;BME280;13016;52.162;21.034;2024-02-26T01:39:50;99545.15;;;12.65;53.38
24996;BME280;13016;52.162;21.034;2024-02-26T01:45:50;99552.20;;;12.57;53.73
24996;BME280;13016;52.162;21.034;2024-02-26T01:51:50;99549.83;;;12.57;54.00
24996;BME280;13016;52.162;21.034;2024-02-26T01:57:51;99549.84;;;12.59;53.78
24996;BME280;13016;52.162;21.034;2024-02-26T02:20:56;99546.48;;;12.31;54.11
24996;BME280;13016;52.162;21.034;2024-02-26T02:26:56;99549.80;;;12.26;54.94
24996;BME280;13016;52.162;21.034;2024-02-26T02:32:57;99551.11;;;12.23;54.45
24996;BME280;13016;52.162;21.034;2024-02-26T02:38:58;99558.52;;;12.07;54.50
24996;BME280;13016;52.162;21.034;2024-02-26T02:44:58;99562.00;;;11.95;54.71
24996;BME280;13016;52.162;21.034;2024-02-26T02:50:58;99559.16;;;11.86;54.78
24996;BME280;13016;52.162;21.034;2024-02-26T02:56:58;99563.59;;;11.91;54.93
24996;BME280;13016;52.162;21.034;2024-02-26T03:02:59;99572.10;;;11.84;54.54
24996;BME280;13016;52.162;21.034;2024-02-26T03:08:59;99579.03;;;11.79;54.76
24996;BME280;13016;52.162;21.034;2024-02-26T03:15:00;99573.16;;;11.72;55.22
24996;BME280;13016;52.162;21.034;2024-02-26T03:21:00;99580.61;;;11.75;55.40
24996;BME280;13016;52.162;21.034;2024-02-26T03:27:00;99584.66;;;11.72;55.20
24996;BME280;13016;52.162;21.034;2024-02-26T03:38:52;99586.86;;;11.62;55.73
24996;BME280;13016;52.162;21.034;2024-02-26T03:44:53;99581.81;;;11.59;55.78
24996;BME280;13016;52.162;21.034;2024-02-26T03:50:53;99575.48;;;11.51;55.83
24996;BME280;13016;52.162;21.034;2024-02-26T03:56:53;99575.99;;;11.49;56.00
24996;BME280;13016;52.162;21.034;2024-02-26T04:02:53;99574.42;;;11.51;55.96
24996;BME280;13016;52.162;21.034;2024-02-26T04:08:53;99577.41;;;11.47;56.17
24996;BME280;13016;52.162;21.034;2024-02-26T04:14:54;99581.75;;;11.55;56.17
24996;BME280;13016;52.162;21.034;2024-02-26T04:20:54;99576.77;;;11.46;55.98
24996;BME280;13016;52.162;21.034;2024-02-26T04:26:54;99574.05;;;11.40;56.42
24996;BME280;13016;52.162;21.034;2024-02-26T04:32:54;99569.57;;;11.37;56.43
24996;BME280;13016;52.162;21.034;2024-02-26T04:38:54;99572.59;;;11.18;56.54
24996;BME280;13016;52.162;21.034;2024-02-26T04:44:55;99573.60;;;11.23;56.63
24996;BME280;13016;52.162;21.034;2024-02-26T04:50:55;99576.50;;;11.08;56.47
24996;BME280;13016;52.162;21.034;2024-02-26T04:56:55;99580.34;;;11.00;56.86
24996;BME280;13016;52.162;21.034;2024-02-26T05:02:55;99583.71;;;10.93;56.78
24996;BME280;13016;52.162;21.034;2024-02-26T05:08:56;99579.75;;;10.89;56.92
24996;BME280;13016;52.162;21.034;2024-02-26T05:14:56;99584.11;;;10.97;57.35
24996;BME280;13016;52.162;21.034;2024-02-26T05:20:56;99585.42;;;11.03;57.16
24996;BME280;13016;52.162;21.034;2024-02-26T05:26:57;99589.20;;;11.09;57.00
24996;BME280;13016;52.162;21.034;2024-02-26T05:32:57;99593.54;;;11.10;56.96
24996;BME280;13016;52.162;21.034;2024-02-26T05:38:57;99600.60;;;11.07;57.05
24996;BME280;13016;52.162;21.034;2024-02-26T05:44:57;99604.42;;;11.06;57.12
24996;BME280;13016;52.162;21.034;2024-02-26T05:50:57;99613.00;;;11.02;57.48
24996;BME280;13016;52.162;21.034;2024-02-26T05:56:57;99606.33;;;10.99;57.24
24996;BME280;13016;52.162;21.034;2024-02-26T06:03:00;99616.42;;;10.89;57.49
24996;BME280;13016;52.162;21.034;2024-02-26T06:09:01;99617.19;;;11.05;57.76
24996;BME280;13016;52.162;21.034;2024-02-26T06:15:03;99626.19;;;11.07;57.82
24996;BME280;13016;52.162;21.034;2024-02-26T06:46:35;99632.10;;;11.64;58.51
24996;BME280;13016;52.162;21.034;2024-02-26T06:52:43;99637.95;;;11.93;58.74
24996;BME280;13016;52.162;21.034;2024-02-26T06:58:43;99644.52;;;12.24;59.04
24996;BME280;13016;52.162;21.034;2024-02-26T07:11:37;99659.45;;;13.14;59.09
24996;BME280;13016;52.162;21.034;2024-02-26T07:17:43;99655.16;;;13.57;58.38
24996;BME280;13016;52.162;21.034;2024-02-26T07:39:49;99666.38;;;14.38;56.81
24996;BME280;13016;52.162;21.034;2024-02-26T07:45:49;99674.19;;;14.74;55.73
24996;BME280;13016;52.162;21.034;2024-02-26T07:51:55;99678.84;;;15.03;55.22
24996;BME280;13016;52.162;21.034;2024-02-26T07:57:56;99680.55;;;15.44;54.60
24996;BME280;13016;52.162;21.034;2024-02-26T08:10:31;99688.88;;;16.81;52.50
24996;BME280;13016;52.162;21.034;2024-02-26T08:22:42;99693.72;;;18.25;48.74
24996;BME280;13016;52.162;21.034;2024-02-26T08:28:49;99696.02;;;18.46;47.66
24996;BME280;13016;52.162;21.034;2024-02-26T08:34:49;99703.11;;;18.53;47.46
24996;BME280;13016;52.162;21.034;2024-02-26T08:40:53;99707.52;;;18.59;47.47
24996;BME280;13016;52.162;21.034;2024-02-26T08:46:54;99710.30;;;19.06;46.94
24996;BME280;13016;52.162;21.034;2024-02-26T08:53:03;99711.45;;;19.17;46.38
24996;BME280;13016;52.162;21.034;2024-02-26T08:59:13;99709.45;;;18.98;46.16
24996;BME280;13016;52.162;21.034;2024-02-26T09:05:13;99710.33;;;18.47;47.31
24996;BME280;13016;52.162;21.034;2024-02-26T09:11:13;99718.40;;;18.00;48.83
24996;BME280;13016;52.162;21.034;2024-02-26T09:23:35;99718.45;;;18.03;49.24
24996;BME280;13016;52.162;21.034;2024-02-26T09:29:35;99721.06;;;18.06;48.98
24996;BME280;13016;52.162;21.034;2024-02-26T09:35:36;99725.23;;;17.81;49.74
24996;BME280;13016;52.162;21.034;2024-02-26T09:41:36;99725.58;;;17.88;49.69
24996;BME280;13016;52.162;21.034;2024-02-26T09:47:40;99729.24;;;17.76;49.73
24996;BME280;13016;52.162;21.034;2024-02-26T09:53:43;99732.33;;;17.85;50.05
24996;BME280;13016;52.162;21.034;2024-02-26T10:00:02;99743.89;;;17.62;50.05
24996;BME280;13016;52.162;21.034;2024-02-26T10:06:03;99749.83;;;17.39;50.52
24996;BME280;13016;52.162;21.034;2024-02-26T10:12:05;99748.62;;;17.09;51.46
24996;BME280;13016;52.162;21.034;2024-02-26T10:18:16;99745.91;;;16.90;52.08
24996;BME280;13016;52.162;21.034;2024-02-26T10:24:16;99744.27;;;16.70;52.38
24996;BME280;13016;52.162;21.034;2024-02-26T10:30:25;99743.48;;;16.65;52.36
24996;BME280;13016;52.162;21.034;2024-02-26T10:36:25;99740.80;;;16.62;52.54
24996;BME280;13016;52.162;21.034;2024-02-26T10:42:32;99744.75;;;16.56;52.23
24996;BME280;13016;52.162;21.034;2024-02-26T10:48:40;99747.44;;;16.57;52.29
24996;BME280;13016;52.162;21.034;2024-02-26T10:54:49;99749.71;;;16.67;52.02
24996;BME280;13016;52.162;21.034;2024-02-26T11:00:51;99743.29;;;16.62;52.02
24996;BME280;13016;52.162;21.034;2024-02-26T11:13:12;99739.52;;;16.98;51.38
24996;BME280;13016;52.162;21.034;2024-02-26T11:19:12;99732.23;;;17.26;50.47
24996;BME280;13016;52.162;21.034;2024-02-26T11:25:13;99732.39;;;17.47;49.76
24996;BME280;13016;52.162;21.034;2024-02-26T11:31:13;99726.24;;;17.78;49.23
24996;BME280;13016;52.162;21.034;2024-02-26T11:37:14;99736.41;;;17.75;48.52
24996;BME280;13016;52.162;21.034;2024-02-26T11:43:14;99725.65;;;17.91;48.36
24996;BME280;13016;52.162;21.034;2024-02-26T12:10:16;99719.41;;;18.44;46.81
24996;BME280;13016;52.162;21.034;2024-02-26T12:41:40;99717.45;;;18.68;45.12
24996;BME280;13016;52.162;21.034;2024-02-26T12:47:41;99714.11;;;18.81;45.08
24996;BME280;13016;52.162;21.034;2024-02-26T12:53:42;99715.41;;;18.99;44.87
24996;BME280;13016;52.162;21.034;2024-02-26T12:59:43;99714.44;;;19.11;43.92
24996;BME280;13016;52.162;21.034;2024-02-26T13:05:43;99713.95;;;19.06;43.68
24996;BME280;13016;52.162;21.034;2024-02-26T13:11:44;99719.04;;;19.10;44.20
24996;BME280;13016;52.162;21.034;2024-02-26T13:24:23;99712.03;;;19.15;43.56
24996;BME280;13016;52.162;21.034;2024-02-26T13:30:24;99710.04;;;19.18;43.41
24996;BME280;13016;52.162;21.034;2024-02-26T13:36:36;99710.40;;;19.25;43.11
24996;BME280;13016;52.162;21.034;2024-02-26T13:42:38;99721.73;;;19.25;42.83
24996;BME280;13016;52.162;21.034;2024-02-26T13:48:39;99728.04;;;19.43;42.85
24996;BME280;13016;52.162;21.034;2024-02-26T13:54:41;99720.81;;;19.52;43.02
24996;BME280;13016;52.162;21.034;2024-02-26T15:28:34;99729.13;;;19.13;44.68
24996;BME280;13016;52.162;21.034;2024-02-26T15:54:21;99734.09;;;18.95;45.78
24996;BME280;13016;52.162;21.034;2024-02-26T16:00:22;99741.45;;;18.79;46.73
24996;BME280;13016;52.162;21.034;2024-02-26T16:06:32;99747.92;;;18.75;47.13
24996;BME280;13016;52.162;21.034;2024-02-26T16:30:57;99767.23;;;18.64;48.53
24996;BME280;13016;52.162;21.034;2024-02-26T16:36:57;99780.02;;;18.45;49.46
24996;BME280;13016;52.162;21.034;2024-02-26T16:49:24;99781.95;;;18.53;49.64
24996;BME280;13016;52.162;21.034;2024-02-26T16:55:25;99783.20;;;18.66;49.47
24996;BME280;13016;52.162;21.034;2024-02-26T17:23:02;99800.79;;;18.55;50.35
24996;BME280;13016;52.162;21.034;2024-02-26T17:29:02;99797.06;;;18.46;50.86
24996;BME280;13016;52.162;21.034;2024-02-26T17:35:03;99791.34;;;18.53;50.79
24996;BME280;13016;52.162;21.034;2024-02-26T17:41:03;99798.55;;;18.51;51.14
24996;BME280;13016;52.162;21.034;2024-02-26T17:47:04;99798.60;;;18.42;51.32
24996;BME280;13016;52.162;21.034;2024-02-26T17:53:13;99796.72;;;18.18;52.05
24996;BME280;13016;52.162;21.034;2024-02-26T17:59:13;99807.52;;;18.17;52.47
24996;BME280;13016;52.162;21.034;2024-02-26T18:05:14;99814.59;;;18.11;52.69
24996;BME280;13016;52.162;21.034;2024-02-26T18:11:14;99813.11;;;18.03;53.29
24996;BME280;13016;52.162;21.034;2024-02-26T18:17:14;99820.52;;;17.97;53.67
24996;BME280;13016;52.162;21.034;2024-02-26T18:23:14;99820.10;;;17.85;54.12
24996;BME280;13016;52.162;21.034;2024-02-26T18:29:15;99817.36;;;17.89;54.36
24996;BME280;13016;52.162;21.034;2024-02-26T18:35:15;99814.38;;;17.88;54.38
24996;BME280;13016;52.162;21.034;2024-02-26T18:41:19;99814.80;;;17.90;54.31
24996;BME280;13016;52.162;21.034;2024-02-26T18:47:19;99813.34;;;17.84;54.72
24996;BME280;13016;52.162;21.034;2024-02-26T18:53:32;99813.10;;;17.75;55.01
24996;BME280;13016;52.162;21.034;2024-02-26T18:59:40;99812.98;;;17.76;55.34
24996;BME280;13016;52.162;21.034;2024-02-26T19:05:42;99811.15;;;17.83;55.10
24996;BME280;13016;52.162;21.034;2024-02-26T20:19:19;99829.80;;;17.37;57.45
24996;BME280;13016;52.162;21.034;2024-02-26T20:25:22;99827.19;;;17.30;57.69
24996;BME280;13016;52.162;21.034;2024-02-26T20:44:00;99830.83;;;17.31;57.76
24996;BME280;13016;52.162;21.034;2024-02-26T20:56:20;99833.20;;;17.25;57.92
24996;BME280;13016;52.162;21.034;2024-02-26T21:02:23;99832.69;;;17.15;58.18
24996;BME280;13016;52.162;21.034;2024-02-26T21:08:23;99839.23;;;17.17;58.36
24996;BME280;13016;52.162;21.034;2024-02-26T21:14:33;99849.66;;;17.20;58.21
24996;BME280;13016;52.162;21.034;2024-02-26T21:20:39;99854.59;;;17.19;58.36
24996;BME280;13016;52.162;21.034;2024-02-26T21:26:40;99855.31;;;17.28;58.30
24996;BME280;13016;52.162;21.034;2024-02-26T21:38:26;99858.31;;;17.30;58.17
24996;BME280;13016;52.162;21.034;2024-02-26T21:44:38;99864.90;;;17.23;58.39
24996;BME280;13016;52.162;21.034;2024-02-26T21:50:49;99874.59;;;17.30;58.21
24996;BME280;13016;52.162;21.034;2024-02-26T21:57:08;99881.15;;;17.36;58.14
24996;BME280;13016;52.162;21.034;2024-02-26T22:15:19;99896.89;;;17.62;57.38
24996;BME280;13016;52.162;21.034;2024-02-26T22:27:56;99906.89;;;17.57;57.02
24996;BME280;13016;52.162;21.034;2024-02-26T22:33:56;99910.79;;;17.43;57.35
24996;BME280;13016;52.162;21.034;2024-02-26T22:46:16;99913.11;;;17.29;57.63
24996;BME280;13016;52.162;21.034;2024-02-26T22:52:17;99913.77;;;17.19;57.85
24996;BME280;13016;52.162;21.034;2024-02-26T23:11:13;99908.32;;;16.86;58.70
24996;BME280;13016;52.162;21.034;2024-02-26T23:17:16;99909.94;;;16.88;58.45
24996;BME280;13016;52.162;21.034;2024-02-26T23:23:22;99905.46;;;16.90;58.20
24996;BME280;13016;52.162;21.034;2024-02-26T23:29:28;99911.36;;;16.96;58.04
24996;BME280;13016;52.162;21.034;2024-02-26T23:35:28;99919.30;;;17.04;57.63
24996;BME280;13016;52.162;21.034;2024-02-26T23:41:34;99918.78;;;16.94;57.56
24996;BME280;13016;52.162;21.034;2024-02-26T23:47:35;99922.66;;;16.86;57.53
24996;BME280;13016;52.162;21.034;2024-02-26T23:53:41;99934.79;;;16.78;57.66
24996;BME280;13016;52.162;21.034;2024-02-26T23:59:42;99939.59;;;16.78;57.66
